createdAt,value
2018-07-04T00:01:11.248Z,93.00
2018-07-04T00:03:51.312Z,93.20
2018-07-04T00:06:30.351Z,93.30
2018-07-04T00:09:09.376Z,93.50
2018-07-04T00:11:48.328Z,93.70
2018-07-04T00:14:27.222Z,93.70
2018-07-04T00:17:06.147Z,93.90
2018-07-04T00:19:45.321Z,93.90
2018-07-04T00:22:24.439Z,94.10
2018-07-04T00:25:03.471Z,94.20
2018-07-04T00:27:42.591Z,94.30
2018-07-04T00:30:21.679Z,94.40
2018-07-04T00:33:00.771Z,94.30
2018-07-04T00:35:39.761Z,94.40
2018-07-04T00:38:18.745Z,94.30
2018-07-04T00:40:57.638Z,94.40
2018-07-04T00:43:36.555Z,94.40
2018-07-04T00:46:15.485Z,94.60
2018-07-04T00:48:54.550Z,94.70
2018-07-04T00:51:33.475Z,94.90
2018-07-04T00:54:13.412Z,95.00
2018-07-04T00:56:52.593Z,95.10
2018-07-04T00:59:31.563Z,95.20
2018-07-04T01:02:10.464Z,95.40
2018-07-04T01:04:49.412Z,95.60
2018-07-04T01:07:29.507Z,95.80
2018-07-04T01:10:08.542Z,95.80
2018-07-04T01:12:48.526Z,95.90
2018-07-04T01:15:28.536Z,96.00
2018-07-04T01:18:07.602Z,96.10
2018-07-04T01:24:07.967Z,96.30
2018-07-04T01:26:47.045Z,96.30
2018-07-04T01:29:26.111Z,96.40
2018-07-04T01:32:05.408Z,96.50
2018-07-04T01:34:44.545Z,96.60
2018-07-04T01:37:23.625Z,96.70
2018-07-04T01:40:02.641Z,96.80
2018-07-04T01:42:41.572Z,96.80
2018-07-04T01:45:20.636Z,97.00
2018-07-04T01:48:00.721Z,97.00
2018-07-04T01:50:39.801Z,97.10
2018-07-04T01:53:18.796Z,97.10
2018-07-04T01:55:57.822Z,97.10
2018-07-04T01:58:36.799Z,97.10
2018-07-04T02:01:15.913Z,97.20
2018-07-04T02:03:55.025Z,97.30
2018-07-04T02:06:34.075Z,97.20
2018-07-04T02:09:13.071Z,97.30
2018-07-04T02:11:53.148Z,97.50
2018-07-04T02:14:32.156Z,97.40
2018-07-04T02:17:11.248Z,97.60
2018-07-04T02:19:50.357Z,97.60
2018-07-04T02:25:09.987Z,97.60
2018-07-04T02:27:48.986Z,97.70
2018-07-04T02:30:27.972Z,97.80
2018-07-04T02:33:07.077Z,97.70
2018-07-04T02:35:46.025Z,98.10
2018-07-04T02:38:25.068Z,97.90
2018-07-04T02:41:03.981Z,98.00
2018-07-04T02:44:07.502Z,97.90
2018-07-04T02:46:46.710Z,97.90
2018-07-04T02:49:25.872Z,98.20
2018-07-04T02:52:04.980Z,98.20
2018-07-04T02:54:44.130Z,98.30
2018-07-04T02:57:23.251Z,98.40
2018-07-04T03:00:02.293Z,98.60
2018-07-04T03:02:41.695Z,98.70
2018-07-04T03:05:20.833Z,98.90
2018-07-04T03:07:59.964Z,99.00
2018-07-04T03:10:39.098Z,99.00
2018-07-04T03:13:18.239Z,99.00
2018-07-04T03:15:57.458Z,99.00
2018-07-04T03:18:36.580Z,99.20
2018-07-04T03:21:15.717Z,99.20
2018-07-04T03:23:54.839Z,99.50
2018-07-04T03:26:34.071Z,99.40
2018-07-04T03:29:13.220Z,99.80
2018-07-04T03:31:52.470Z,99.40
2018-07-04T03:34:31.587Z,99.80
2018-07-04T03:37:10.815Z,99.50
2018-07-04T03:39:50.068Z,99.90
2018-07-04T03:42:29.204Z,99.90
2018-07-04T03:47:48.413Z,99.80
2018-07-04T03:50:27.520Z,99.80
2018-07-04T03:53:10.824Z,99.60
2018-07-04T03:55:49.791Z,99.70
2018-07-04T03:58:28.822Z,99.60
2018-07-04T04:01:07.922Z,99.60
2018-07-04T04:03:46.874Z,99.60
2018-07-04T04:06:26.999Z,99.50
2018-07-04T04:09:23.005Z,99.50
2018-07-04T04:12:02.412Z,99.10
2018-07-04T04:14:41.418Z,99.00
2018-07-04T04:17:20.496Z,98.90
2018-07-04T04:19:59.370Z,98.70
2018-07-04T04:22:38.428Z,98.50
2018-07-04T04:25:17.514Z,98.50
2018-07-04T04:28:04.147Z,98.30
2018-07-04T04:30:44.241Z,98.00
2018-07-04T04:33:23.159Z,97.80
2018-07-04T04:36:02.165Z,97.50
2018-07-04T04:38:41.081Z,97.50
2018-07-04T04:41:20.137Z,97.50
2018-07-04T04:43:59.217Z,97.30
2018-07-04T04:46:39.375Z,97.10
2018-07-04T04:49:18.471Z,97.10
2018-07-04T04:52:25.530Z,96.90
2018-07-04T04:55:04.629Z,96.50
2018-07-04T04:57:43.623Z,96.20
2018-07-04T05:00:22.515Z,96.10
2018-07-04T05:03:02.632Z,96.00
2018-07-04T05:05:41.726Z,95.80
2018-07-04T05:08:20.763Z,95.70
2018-07-04T05:10:59.693Z,95.10
2018-07-04T05:13:38.584Z,95.20
2018-07-04T05:16:17.696Z,95.30
2018-07-04T05:18:56.628Z,95.10
2018-07-04T05:21:35.707Z,95.20
2018-07-04T05:24:14.849Z,95.00
2018-07-04T05:27:01.660Z,94.70
2018-07-04T05:29:42.413Z,94.30
2018-07-04T05:32:21.362Z,94.10
2018-07-04T05:35:16.234Z,94.00
2018-07-04T05:37:55.196Z,93.70
2018-07-04T05:40:34.145Z,93.50
2018-07-04T05:43:17.008Z,92.70
2018-07-04T05:45:56.237Z,92.60
2018-07-04T05:48:35.338Z,92.10
2018-07-04T05:51:14.416Z,92.00
2018-07-04T05:53:53.574Z,91.90
2018-07-04T05:56:32.703Z,91.80
2018-07-04T05:59:11.829Z,91.70
2018-07-04T06:01:50.944Z,91.90
2018-07-04T06:04:31.145Z,91.50
2018-07-04T06:07:18.443Z,91.50
2018-07-04T06:09:57.387Z,92.20
2018-07-04T06:12:36.521Z,92.50
2018-07-04T06:15:15.478Z,92.40
2018-07-04T06:17:54.777Z,92.10
2018-07-04T06:20:33.741Z,91.60
2018-07-04T06:23:13.086Z,91.40
2018-07-04T06:25:52.208Z,90.50
2018-07-04T06:28:31.241Z,90.50
2018-07-04T06:31:10.543Z,90.40
2018-07-04T06:33:50.182Z,90.00
2018-07-04T06:36:29.334Z,89.70
2018-07-04T06:38:56.030Z,89.50
2018-07-04T06:41:22.831Z,89.00
2018-07-04T06:43:49.603Z,89.00
2018-07-04T06:49:03.012Z,89.30
2018-07-04T06:51:29.710Z,88.50
2018-07-04T06:53:56.387Z,86.70
2018-07-04T06:56:23.093Z,87.00
2018-07-04T06:58:49.816Z,85.80
2018-07-04T07:01:16.540Z,85.60
2018-07-04T07:03:56.657Z,84.70
2018-07-04T07:06:35.585Z,86.80
2018-07-04T07:09:14.716Z,85.20
2018-07-04T07:11:53.736Z,86.10
2018-07-04T07:14:32.744Z,87.20
2018-07-04T07:17:37.908Z,86.50
2018-07-04T07:20:16.994Z,84.30
2018-07-04T07:22:57.856Z,84.20
2018-07-04T07:25:37.907Z,85.20
2018-07-04T07:28:16.782Z,83.50
2018-07-04T07:30:55.966Z,82.80
2018-07-04T07:33:34.902Z,82.00
2018-07-04T07:36:14.026Z,82.00
2018-07-04T07:38:52.929Z,84.10
2018-07-04T07:41:32.048Z,83.30
2018-07-04T07:46:58.756Z,80.70
2018-07-04T07:49:37.764Z,80.60
2018-07-04T07:52:16.884Z,80.10
2018-07-04T07:54:55.775Z,79.90
2018-07-04T07:57:34.771Z,80.60
2018-07-04T08:00:13.709Z,80.70
2018-07-04T08:02:52.650Z,79.50
2018-07-04T08:05:31.612Z,77.80
2018-07-04T08:08:10.671Z,77.10
2018-07-04T08:10:49.660Z,76.10
2018-07-04T08:13:28.894Z,79.20
2018-07-04T08:16:11.408Z,78.00
2018-07-04T08:18:50.552Z,77.10
2018-07-04T08:21:29.519Z,75.30
2018-07-04T08:24:08.670Z,75.70
2018-07-04T08:26:47.670Z,74.70
2018-07-04T08:29:26.942Z,74.30
2018-07-04T08:32:06.162Z,76.20
2018-07-04T08:34:45.300Z,75.60
2018-07-04T08:37:24.495Z,71.70
2018-07-04T08:40:03.561Z,71.40
2018-07-04T08:42:42.672Z,71.50
2018-07-04T08:45:21.866Z,72.90
2018-07-04T08:48:01.009Z,73.90
2018-07-04T08:50:40.260Z,76.00
2018-07-04T08:53:19.313Z,75.00
2018-07-04T08:55:58.449Z,74.00
2018-07-04T08:58:38.601Z,72.10
2018-07-04T09:01:17.715Z,71.40
2018-07-04T09:03:56.840Z,69.80
2018-07-04T09:06:36.159Z,69.30
2018-07-04T09:09:15.299Z,69.60
2018-07-04T09:11:54.624Z,69.40
2018-07-04T09:14:33.765Z,68.60
2018-07-04T09:17:18.073Z,67.40
2018-07-04T09:19:57.121Z,69.00
2018-07-04T09:22:36.082Z,69.50
2018-07-04T09:25:15.146Z,69.10
2018-07-04T09:27:54.060Z,69.50
2018-07-04T09:30:33.090Z,70.60
2018-07-04T09:33:12.205Z,68.40
2018-07-04T09:35:51.151Z,68.10
2018-07-04T09:38:30.209Z,67.10
2018-07-04T09:41:13.010Z,65.40
2018-07-04T09:43:52.156Z,64.80
2018-07-04T09:46:31.282Z,64.70
2018-07-04T09:49:11.394Z,66.10
2018-07-04T09:51:50.419Z,70.00
2018-07-04T09:54:29.371Z,69.20
2018-07-04T09:57:08.334Z,66.50
2018-07-04T09:59:47.354Z,66.50
2018-07-04T10:02:26.470Z,68.60
2018-07-04T10:05:05.590Z,67.90
2018-07-04T10:07:45.654Z,69.40
2018-07-04T10:10:24.803Z,69.00
2018-07-04T10:13:03.824Z,66.10
2018-07-04T10:15:43.992Z,65.40
2018-07-04T10:18:23.264Z,63.60
2018-07-04T10:21:03.275Z,64.90
2018-07-04T10:23:42.364Z,66.40
2018-07-04T10:26:21.439Z,63.30
2018-07-04T10:29:00.374Z,63.40
2018-07-04T10:31:39.415Z,63.40
2018-07-04T10:34:18.351Z,60.90
2018-07-04T10:36:57.428Z,59.70
2018-07-04T10:39:36.483Z,58.70
2018-07-04T10:42:15.403Z,58.60
2018-07-04T10:44:54.450Z,58.00
2018-07-04T10:47:33.512Z,57.60
2018-07-04T10:50:12.804Z,57.40
2018-07-04T10:52:51.781Z,60.30
2018-07-04T10:55:48.393Z,61.10
2018-07-04T10:58:27.603Z,62.60
2018-07-04T11:01:06.566Z,61.30
2018-07-04T11:03:47.740Z,59.60
2018-07-04T11:06:26.679Z,58.90
2018-07-04T11:09:05.785Z,57.30
2018-07-04T11:11:44.709Z,54.90
2018-07-04T11:14:23.874Z,54.00
2018-07-04T11:17:04.060Z,56.40
2018-07-04T11:19:43.062Z,56.50
2018-07-04T11:22:22.160Z,57.40
2018-07-04T11:25:01.164Z,55.90
2018-07-04T11:27:40.073Z,57.20
2018-07-04T11:30:21.380Z,57.10
2018-07-04T11:33:00.688Z,58.40
2018-07-04T11:35:39.603Z,57.70
2018-07-04T11:38:18.738Z,57.20
2018-07-04T11:40:57.901Z,58.60
2018-07-04T11:43:36.973Z,58.80
2018-07-04T11:46:03.751Z,59.30
2018-07-04T11:48:30.484Z,58.50
2018-07-04T11:53:24.279Z,62.20
2018-07-04T11:55:52.012Z,59.20
2018-07-04T11:58:18.709Z,58.90
2018-07-04T12:00:45.481Z,57.50
2018-07-04T12:03:20.276Z,57.00
2018-07-04T12:05:59.193Z,56.90
2018-07-04T12:08:25.981Z,56.90
2018-07-04T12:10:53.087Z,56.60
2018-07-04T12:13:20.864Z,56.30
2018-07-04T12:15:48.596Z,56.10
2018-07-04T12:18:15.338Z,57.20
2018-07-04T12:21:06.322Z,56.30
2018-07-04T12:23:33.367Z,55.70
2018-07-04T12:26:00.267Z,54.10
2018-07-04T12:28:27.924Z,53.90
2018-07-04T12:30:54.723Z,53.00
2018-07-04T12:33:21.393Z,52.70
2018-07-04T12:35:48.094Z,51.80
2018-07-04T12:38:14.772Z,52.00
2018-07-04T12:40:41.437Z,50.90
2018-07-04T12:43:08.112Z,53.00
2018-07-04T12:45:39.487Z,53.50
2018-07-04T12:48:01.746Z,53.80
2018-07-04T12:50:30.405Z,53.80
2018-07-04T12:52:57.082Z,54.30
2018-07-04T12:55:38.452Z,52.40
2018-07-04T12:58:18.446Z,54.60
2018-07-04T13:00:57.370Z,55.60
2018-07-04T13:03:36.278Z,53.80
2018-07-04T13:06:15.262Z,54.30
2018-07-04T13:08:54.343Z,53.80
2018-07-04T13:11:33.345Z,54.60
2018-07-04T13:14:12.360Z,54.40
2018-07-04T13:16:51.547Z,53.70
2018-07-04T13:19:30.544Z,51.40
2018-07-04T13:22:09.543Z,51.80
2018-07-04T13:24:48.668Z,52.90
2018-07-04T13:27:27.871Z,52.30
2018-07-04T13:30:07.841Z,51.80
2018-07-04T13:32:46.884Z,50.50
2018-07-04T13:35:25.915Z,50.60
2018-07-04T13:38:04.957Z,49.90
2018-07-04T13:40:44.077Z,49.20
2018-07-04T13:43:23.145Z,47.50
2018-07-04T13:46:02.415Z,48.10
2018-07-04T13:48:41.528Z,47.00
2018-07-04T13:51:20.887Z,49.00
2018-07-04T13:53:59.955Z,49.80
2018-07-04T13:56:38.849Z,51.90
2018-07-04T13:59:17.900Z,50.20
2018-07-04T14:01:57.027Z,52.20
2018-07-04T14:04:36.137Z,50.70
2018-07-04T14:07:19.149Z,51.50
2018-07-04T14:09:58.333Z,53.20
2018-07-04T14:12:37.482Z,51.50
2018-07-04T14:15:16.496Z,50.80
2018-07-04T14:17:55.687Z,49.00
2018-07-04T14:20:34.903Z,49.30
2018-07-04T14:23:14.189Z,52.40
2018-07-04T14:25:53.228Z,52.50
2018-07-04T14:28:33.310Z,53.90
2018-07-04T14:31:12.452Z,53.80
2018-07-04T14:33:51.577Z,55.10
2018-07-04T14:36:30.732Z,55.90
2018-07-04T14:39:09.851Z,55.00
2018-07-04T14:41:49.069Z,54.70
2018-07-04T14:44:29.113Z,55.30
2018-07-04T14:47:25.108Z,54.60
2018-07-04T14:50:04.178Z,56.00
2018-07-04T14:52:43.342Z,57.30
2018-07-04T14:55:22.771Z,57.30
2018-07-04T14:58:16.886Z,57.70
2018-07-04T15:01:05.020Z,57.80
2018-07-04T15:03:44.226Z,56.70
2018-07-04T15:06:23.341Z,57.70
2018-07-04T15:09:02.477Z,57.70
2018-07-04T15:11:41.579Z,57.40
2018-07-04T15:14:20.803Z,57.70
2018-07-04T15:16:59.905Z,57.70
2018-07-04T15:19:39.003Z,58.00
2018-07-04T15:22:18.182Z,59.40
2018-07-04T15:24:57.997Z,58.70
2018-07-04T15:27:36.990Z,59.20
2018-07-04T15:30:16.141Z,59.40
2018-07-04T15:32:55.295Z,58.10
2018-07-04T15:35:34.286Z,58.50
2018-07-04T15:38:13.459Z,58.20
2018-07-04T15:40:52.557Z,58.20
2018-07-04T15:43:31.676Z,58.80
2018-07-04T15:46:10.870Z,59.40
2018-07-04T15:48:50.168Z,59.60
2018-07-04T15:51:29.269Z,58.80
2018-07-04T15:54:08.491Z,58.10
2018-07-04T15:56:47.490Z,58.20
2018-07-04T15:59:26.728Z,58.40
2018-07-04T16:02:05.803Z,57.70
2018-07-04T16:04:44.952Z,58.60
2018-07-04T16:07:24.057Z,58.40
2018-07-04T16:10:03.173Z,58.50
2018-07-04T16:12:42.115Z,59.20
2018-07-04T16:15:21.248Z,58.50
2018-07-04T16:18:00.284Z,58.40
2018-07-04T16:20:39.223Z,58.70
2018-07-04T16:23:18.282Z,57.70
2018-07-04T16:25:57.205Z,58.90
2018-07-04T16:28:36.132Z,58.40
2018-07-04T16:31:15.044Z,58.00
2018-07-04T16:33:54.975Z,57.30
2018-07-04T16:36:33.901Z,58.30
2018-07-04T16:39:12.845Z,58.30
2018-07-04T16:41:51.769Z,58.40
2018-07-04T16:44:30.782Z,58.90
2018-07-04T16:47:09.766Z,58.70
2018-07-04T16:49:48.787Z,58.40
2018-07-04T16:52:27.705Z,58.90
2018-07-04T16:55:06.841Z,59.20
2018-07-04T16:57:46.013Z,60.20
2018-07-04T17:00:25.095Z,60.10
2018-07-04T17:03:04.355Z,59.60
2018-07-04T17:05:43.388Z,59.10
2018-07-04T17:08:22.792Z,58.90
2018-07-04T17:11:02.899Z,59.20
2018-07-04T17:13:41.973Z,59.70
2018-07-04T17:16:21.097Z,60.40
2018-07-04T17:19:36.202Z,59.80
2018-07-04T17:22:15.192Z,59.80
2018-07-04T17:24:54.324Z,59.40
2018-07-04T17:27:33.850Z,59.90
2018-07-04T17:30:14.117Z,61.90
2018-07-04T17:32:53.217Z,64.10
2018-07-04T17:35:33.268Z,66.00
2018-07-04T17:38:12.651Z,66.30
2018-07-04T17:41:07.073Z,67.50
2018-07-04T17:43:46.195Z,68.40
2018-07-04T17:46:25.144Z,68.90
2018-07-04T17:49:04.222Z,69.40
2018-07-04T17:51:43.373Z,69.90
2018-07-04T17:54:22.421Z,68.70
2018-07-04T17:57:02.520Z,68.70
2018-07-04T17:59:41.558Z,68.90
2018-07-04T18:02:35.503Z,69.20
2018-07-04T18:05:15.643Z,69.20
2018-07-04T18:08:16.944Z,67.40
2018-07-04T18:10:56.947Z,66.50
2018-07-04T18:13:35.989Z,66.60
2018-07-04T18:16:15.117Z,68.10
2018-07-04T18:18:54.064Z,69.40
2018-07-04T18:21:33.062Z,69.40
2018-07-04T18:24:12.100Z,70.10
2018-07-04T18:26:51.300Z,69.50
2018-07-04T18:29:30.381Z,69.00
2018-07-04T18:32:09.443Z,68.20
2018-07-04T18:34:48.636Z,67.80
2018-07-04T18:37:27.742Z,67.40
2018-07-04T18:40:06.863Z,67.50
2018-07-04T18:42:45.958Z,67.90
2018-07-04T18:45:24.898Z,68.60
2018-07-04T18:48:03.934Z,69.90
2018-07-04T18:50:45.844Z,70.50
2018-07-04T18:53:25.814Z,70.60
2018-07-04T18:56:04.803Z,71.10
2018-07-04T18:58:43.886Z,70.10
2018-07-04T19:01:22.999Z,70.60
2018-07-04T19:04:02.093Z,71.30
2018-07-04T19:06:41.201Z,70.00
2018-07-04T19:09:20.175Z,69.80
2018-07-04T19:12:22.187Z,69.90
2018-07-04T19:15:01.183Z,70.40
2018-07-04T19:17:40.080Z,69.50
2018-07-04T19:20:19.136Z,68.80
2018-07-04T19:22:59.129Z,67.90
2018-07-04T19:25:38.099Z,68.60
2018-07-04T19:28:17.184Z,67.20
2018-07-04T19:30:56.281Z,66.60
2018-07-04T19:33:35.221Z,67.80
2018-07-04T19:36:14.283Z,67.90
2018-07-04T19:38:53.328Z,68.30
2018-07-04T19:41:32.250Z,68.20
2018-07-04T19:44:11.280Z,68.10
2018-07-04T19:46:50.347Z,67.80
2018-07-04T19:52:57.211Z,68.40
2018-07-04T19:55:42.175Z,69.50
2018-07-04T19:58:25.481Z,69.50
2018-07-04T20:01:09.930Z,70.50
2018-07-04T20:04:03.763Z,72.30
2018-07-04T20:06:43.078Z,72.80
2018-07-04T20:09:22.263Z,74.10
2018-07-04T20:12:01.385Z,74.20
2018-07-04T20:14:40.367Z,75.50
2018-07-04T20:17:19.603Z,75.70
2018-07-04T20:19:58.651Z,76.80
2018-07-04T20:22:37.794Z,78.00
2018-07-04T20:25:16.815Z,78.70
2018-07-04T20:27:56.054Z,79.20
2018-07-04T20:30:35.183Z,79.50
2018-07-04T20:33:14.409Z,80.40
2018-07-04T20:35:53.554Z,81.40
2018-07-04T20:38:32.670Z,82.40
2018-07-04T20:41:11.729Z,83.00
2018-07-04T20:43:50.825Z,83.20
2018-07-04T20:46:30.153Z,83.60
2018-07-04T20:49:09.488Z,84.30
2018-07-04T20:51:48.637Z,84.30
2018-07-04T20:54:27.601Z,84.30
2018-07-04T20:57:06.726Z,85.80
2018-07-04T20:59:45.707Z,85.00
2018-07-04T21:02:24.633Z,85.00
2018-07-04T21:05:03.782Z,85.70
2018-07-04T21:07:42.853Z,85.70
2018-07-04T21:10:22.024Z,85.00
2018-07-04T21:13:01.086Z,86.50
2018-07-04T21:15:40.218Z,88.80
2018-07-04T21:18:19.355Z,89.10
2018-07-04T21:20:58.601Z,89.70
2018-07-04T21:23:37.705Z,90.10
2018-07-04T21:26:16.945Z,88.30
2018-07-04T21:28:56.085Z,90.50
2018-07-04T21:31:35.300Z,90.00
2018-07-04T21:34:14.443Z,90.70
2018-07-04T21:36:53.522Z,91.00
2018-07-04T21:39:32.665Z,91.40
2018-07-04T21:42:11.716Z,91.70
2018-07-04T21:44:50.823Z,92.40
2018-07-04T21:47:30.104Z,91.80
2018-07-04T21:50:09.262Z,92.30
2018-07-04T21:52:48.539Z,92.90
2018-07-04T21:55:27.567Z,93.40
2018-07-04T21:58:06.762Z,93.90
2018-07-04T22:00:45.832Z,93.70
2018-07-04T22:03:25.088Z,94.00
2018-07-04T22:06:04.185Z,93.70
2018-07-04T22:08:43.333Z,94.50
2018-07-04T22:11:22.243Z,94.60
2018-07-04T22:14:01.194Z,94.30
2018-07-04T22:16:40.150Z,94.20
2018-07-04T22:19:19.100Z,95.30
2018-07-04T22:21:58.205Z,93.90
2018-07-04T22:24:37.122Z,94.70
2018-07-04T22:27:16.161Z,95.90
2018-07-04T22:29:55.103Z,95.70
2018-07-04T22:32:34.200Z,94.90
2018-07-04T22:35:28.787Z,95.00
2018-07-04T22:38:11.319Z,94.60
2018-07-04T22:40:51.314Z,94.10
2018-07-04T22:43:30.304Z,95.50
2018-07-04T22:46:09.183Z,94.10
2018-07-04T22:48:48.144Z,95.00
2018-07-04T22:51:27.220Z,95.30
2018-07-04T22:54:06.139Z,96.20
2018-07-04T22:56:45.211Z,96.60
2018-07-04T22:59:24.190Z,96.40
2018-07-04T23:02:04.129Z,96.10
2018-07-04T23:04:43.175Z,96.70
2018-07-04T23:07:22.155Z,97.20
2018-07-04T23:10:01.182Z,96.00
2018-07-04T23:12:41.378Z,96.40
2018-07-04T23:15:20.316Z,96.40
2018-07-04T23:17:59.353Z,95.80
2018-07-04T23:20:38.241Z,97.30
2018-07-04T23:23:18.144Z,97.40
2018-07-04T23:25:57.130Z,97.50
2018-07-04T23:28:36.083Z,97.60
2018-07-04T23:31:14.953Z,97.60
2018-07-04T23:33:54.118Z,98.00
2018-07-04T23:36:33.216Z,97.80
2018-07-04T23:39:12.140Z,98.60
2018-07-04T23:41:51.217Z,98.60
2018-07-04T23:46:56.260Z,98.70
2018-07-04T23:49:35.320Z,98.50
2018-07-04T23:52:14.278Z,98.70
2018-07-04T23:54:53.439Z,99.00
2018-07-04T23:57:32.506Z,98.80
